Time;durP1;ratioP1;P1;durP2;ratioP2;P2;SDS_P1;SDS_P2;PMS_P1;PMS_P2;Temp;Humidity;BMP_temperature;BMP_pressure;BME280_temperature;BME280_humidity;BME280_pressure;Samples;Min_cycle;Max_cycle;Signal;HPM_P1;HPM_P2
2022/11/05 00:09:28;;;;;;;15.65;9.65;;;8.70;99.90;;;;;;5079191;28;20445;-68
2022/11/05 00:11:14;;;;;;;12.82;9.40;;;8.30;99.90;;;;;;5052494;28;20110;-68
2022/11/05 00:16:42;;;;;;;12.75;8.90;;;8.30;99.90;;;;;;5058602;28;20035;-68
2022/11/05 00:19:08;;;;;;;10.85;9.05;;;8.20;99.90;;;;;;5057539;28;20135;-68
2022/11/05 00:27:06;;;;;;;11.63;8.65;;;8.20;99.90;;;;;;5061390;28;20516;-68
2022/11/05 00:29:32;;;;;;;14.98;9.05;;;8.20;99.90;;;;;;5039616;28;20502;-68
2022/11/05 00:31:57;;;;;;;15.00;9.82;;;8.40;99.90;;;;;;5063215;28;20052;-68
2022/11/05 00:34:23;;;;;;;16.83;9.63;;;8.40;99.90;;;;;;5060462;28;20581;-68
2022/11/05 00:36:48;;;;;;;14.20;9.73;;;8.40;99.90;;;;;;5059128;28;20028;-68
2022/11/05 00:39:14;;;;;;;13.38;8.70;;;8.30;99.90;;;;;;5058498;28;20135;-68
2022/11/05 00:41:40;;;;;;;10.88;8.48;;;8.30;99.90;;;;;;5056069;28;20025;-68
2022/11/05 00:49:28;;;;;;;13.57;8.30;;;8.10;99.90;;;;;;5057598;28;20043;-68
2022/11/05 00:49:35;;;;;;;13.73;8.52;;;8.10;99.90;;;;;;5062261;28;20089;-68
2022/11/05 00:54:45;;;;;;;15.23;8.70;;;8.00;99.90;;;;;;5057988;28;20059;-68
2022/11/05 00:57:10;;;;;;;13.00;8.25;;;8.00;99.90;;;;;;5058591;28;20051;-68
2022/11/05 00:59:36;;;;;;;11.63;8.40;;;7.90;99.90;;;;;;5058175;28;20487;-68
2022/11/05 01:02:01;;;;;;;13.25;7.95;;;7.80;99.90;;;;;;5062075;28;20055;-68
2022/11/05 01:04:27;;;;;;;12.23;8.02;;;7.90;99.90;;;;;;5062538;28;20039;-68
2022/11/05 01:06:53;;;;;;;13.85;8.32;;;7.80;99.90;;;;;;5059129;28;20025;-68
2022/11/05 01:09:19;;;;;;;13.98;8.43;;;7.80;99.90;;;;;;5060941;28;20561;-68
2022/11/05 01:11:45;;;;;;;12.65;8.30;;;7.80;99.90;;;;;;5061210;28;20029;-68
2022/11/05 01:14:12;;;;;;;12.68;8.45;;;7.70;99.90;;;;;;5060052;28;20024;-68
2022/11/05 01:16:39;;;;;;;16.27;9.27;;;7.60;99.90;;;;;;5057854;28;20508;-68
2022/11/05 01:19:06;;;;;;;12.73;8.63;;;7.60;99.90;;;;;;5058492;28;20036;-68
2022/11/05 01:21:32;;;;;;;14.40;9.95;;;7.70;99.90;;;;;;5058289;28;20121;-68
2022/11/05 01:23:57;;;;;;;16.20;11.35;;;7.70;99.90;;;;;;5055001;28;20063;-68
2022/11/05 01:26:23;;;;;;;19.48;11.63;;;7.70;99.90;;;;;;5052943;28;20043;-69
2022/11/05 01:28:52;;;;;;;18.55;11.25;;;7.60;99.90;;;;;;5050190;28;20044;-68
2022/11/05 01:31:18;;;;;;;13.05;10.25;;;7.80;99.90;;;;;;5050276;28;20029;-68
2022/11/05 01:33:44;;;;;;;15.63;9.82;;;7.70;99.90;;;;;;5041920;28;20039;-68
2022/11/05 01:36:10;;;;;;;15.05;10.43;;;7.70;99.90;;;;;;5076808;28;20036;-68
2022/11/05 01:38:36;;;;;;;16.40;10.02;;;7.70;99.90;;;;;;5078219;28;20032;-68
2022/11/05 01:41:02;;;;;;;13.75;9.95;;;7.60;99.90;;;;;;5076770;28;20113;-69
2022/11/05 01:43:45;;;;;;;14.63;10.52;;;7.50;99.90;;;;;;5078393;28;20713;-68
2022/11/05 01:46:11;;;;;;;17.90;10.00;;;7.50;99.90;;;;;;5077788;28;20417;-68
2022/11/05 01:48:37;;;;;;;17.40;10.07;;;7.50;99.90;;;;;;5059702;28;20113;-68
2022/11/05 01:51:16;;;;;;;16.42;9.93;;;7.40;99.90;;;;;;5074964;28;20792;-68
2022/11/05 01:53:46;;;;;;;12.23;9.60;;;7.40;99.90;;;;;;5059124;28;20150;-69
2022/11/05 01:56:25;;;;;;;15.25;9.00;;;7.40;99.90;;;;;;5077857;28;20020;-68
2022/11/05 01:59:06;;;;;;;13.07;9.30;;;7.40;99.90;;;;;;5057773;28;20029;-69
2022/11/05 02:01:32;;;;;;;12.90;9.90;;;7.50;99.90;;;;;;5076331;28;20043;-69
2022/11/05 02:04:06;;;;;;;18.85;9.20;;;7.40;99.90;;;;;;5078363;28;20068;-69
2022/11/05 02:06:35;;;;;;;12.50;9.23;;;7.40;99.90;;;;;;5058568;28;20393;-69
2022/11/05 02:09:09;;;;;;;12.85;8.40;;;7.20;99.90;;;;;;5077656;28;20039;-69
2022/11/05 02:11:34;;;;;;;11.95;8.70;;;7.20;99.90;;;;;;5068118;28;20039;-69
2022/11/05 02:14:00;;;;;;;14.10;8.98;;;7.20;99.90;;;;;;5053337;28;20024;-69
2022/11/05 02:16:42;;;;;;;10.85;7.72;;;7.30;99.90;;;;;;5077110;28;20062;-69
2022/11/05 02:19:30;;;;;;;11.32;8.45;;;7.30;99.90;;;;;;5077068;28;20055;-69
2022/11/05 02:22:14;;;;;;;14.07;8.40;;;7.30;99.90;;;;;;5071191;28;20098;-69
2022/11/05 02:24:50;;;;;;;;;;;7.30;99.90;;;;;;5055585;28;20024;-69
2022/11/05 02:27:44;;;;;;;13.85;9.43;;;7.40;99.90;;;;;;5075815;28;21341;-70
2022/11/05 02:30:24;;;;;;;11.95;8.95;;;7.50;99.90;;;;;;5072623;28;20016;-69
2022/11/05 02:33:03;;;;;;;14.25;9.52;;;7.40;99.90;;;;;;5076941;28;20040;-69
2022/11/05 02:36:00;;;;;;;10.77;8.63;;;7.50;99.90;;;;;;5075835;28;20028;-69
2022/11/05 02:38:36;;;;;;;11.15;8.77;;;7.50;99.90;;;;;;5048994;28;20025;-69
2022/11/05 02:41:40;;;;;;;11.35;9.30;;;7.60;99.90;;;;;;5073361;28;20482;-69
2022/11/05 02:44:30;;;;;;;12.10;9.43;;;7.60;99.90;;;;;;5072516;28;20043;-69
2022/11/05 02:47:27;;;;;;;11.00;9.00;;;7.60;99.90;;;;;;5055874;28;20032;-69
2022/11/05 02:50:05;;;;;;;11.18;9.05;;;7.60;99.90;;;;;;5057067;28;20063;-69
2022/11/05 02:52:49;;;;;;;13.23;9.00;;;7.70;99.90;;;;;;5053444;28;20040;-69
2022/11/05 02:55:22;;;;;;;;;;;7.80;99.90;;;;;;5074918;28;20539;-70
2022/11/05 02:57:47;;;;;;;10.02;6.72;;;7.80;99.90;;;;;;5056551;28;19943;-70
2022/11/05 03:00:35;;;;;;;15.05;9.18;;;7.80;99.90;;;;;;5056631;28;20064;-70
2022/11/05 03:03:03;;;;;;;14.77;9.77;;;7.70;99.90;;;;;;5056320;28;20123;-70
2022/11/05 03:05:38;;;;;;;14.05;9.60;;;7.80;99.90;;;;;;5071924;28;20024;-70
2022/11/05 03:08:17;;;;;;;14.20;9.05;;;7.70;99.90;;;;;;5074216;28;20663;-70
2022/11/05 03:10:50;;;;;;;13.77;8.98;;;7.70;99.90;;;;;;5078504;28;20059;-69
2022/11/05 03:13:27;;;;;;;12.48;9.23;;;7.60;99.90;;;;;;5077963;28;20048;-69
2022/11/05 03:16:01;;;;;;;12.88;7.82;;;7.60;99.90;;;;;;5076630;28;20035;-69
2022/11/05 03:19:01;;;;;;;11.85;8.60;;;7.50;99.90;;;;;;5075527;28;20024;-69
2022/11/05 03:22:08;;;;;;;14.68;8.40;;;7.50;99.90;;;;;;5046204;28;20058;-69
2022/11/05 03:24:40;;;;;;;13.95;8.80;;;7.40;99.90;;;;;;5004540;28;20034;-70
2022/11/05 03:27:12;;;;;;;11.77;7.93;;;7.40;99.90;;;;;;5080431;28;20692;-70
2022/11/05 03:29:50;;;;;;;12.55;8.52;;;7.40;99.90;;;;;;5062319;28;20036;-70
2022/11/05 03:32:19;;;;;;;13.48;8.73;;;7.30;99.90;;;;;;5078988;28;20075;-70
2022/11/05 03:34:51;;;;;;;16.92;9.23;;;7.30;99.90;;;;;;5062017;28;20038;-70
2022/11/05 03:37:20;;;;;;;14.05;9.65;;;7.30;99.90;;;;;;5073286;28;20036;-69
2022/11/05 03:39:50;;;;;;;14.07;8.13;;;7.30;99.90;;;;;;5061239;28;20093;-69
2022/11/05 03:42:19;;;;;;;13.15;8.55;;;7.20;99.90;;;;;;5077957;28;20040;-69
2022/11/05 03:44:50;;;;;;;14.45;8.68;;;7.20;99.90;;;;;;5078772;28;20028;-70
2022/11/05 03:47:21;;;;;;;15.63;9.00;;;7.20;99.90;;;;;;5077433;28;20036;-69
2022/11/05 03:50:07;;;;;;;16.23;9.77;;;7.20;99.90;;;;;;5061601;28;20059;-69
2022/11/05 03:52:39;;;;;;;13.93;9.65;;;7.10;99.90;;;;;;5062967;28;20181;-69
2022/11/05 03:55:05;;;;;;;16.48;9.98;;;7.10;99.90;;;;;;5078062;28;20086;-70
2022/11/05 03:57:35;;;;;;;18.15;9.85;;;7.20;99.90;;;;;;5079970;28;20119;-70
2022/11/05 04:00:06;;;;;;;15.00;9.43;;;7.10;99.90;;;;;;5059828;28;20031;-70
2022/11/05 04:02:32;;;;;;;14.73;9.57;;;7.00;99.90;;;;;;5074966;28;20476;-69
2022/11/05 04:04:57;;;;;;;14.93;9.23;;;6.90;99.90;;;;;;5080837;28;20035;-70
2022/11/05 04:18:21;;;;;;;11.18;6.85;;;6.90;99.90;;;;;;5080842;28;20402;-69
2022/11/05 04:26:15;;;;;;;10.60;7.63;;;6.90;99.90;;;;;;5076545;28;20158;-69
2022/11/05 04:31:25;;;;;;;8.75;6.88;;;6.80;99.90;;;;;;5080604;28;20191;-69
2022/11/05 04:33:51;;;;;;;8.57;6.88;;;6.70;99.90;;;;;;5078633;28;20020;-70
2022/11/05 04:36:18;;;;;;;9.35;6.65;;;6.70;99.90;;;;;;5079154;28;20279;-69
2022/11/05 04:38:43;;;;;;;9.82;6.40;;;6.70;99.90;;;;;;5060917;28;20123;-69
2022/11/05 04:41:14;;;;;;;11.93;7.00;;;6.60;99.90;;;;;;5077865;28;20703;-69
2022/11/05 04:43:39;;;;;;;9.60;6.68;;;6.60;99.90;;;;;;5081318;28;20480;-69
2022/11/05 04:46:05;;;;;;;12.75;7.70;;;6.60;99.90;;;;;;5078066;28;20114;-69
2022/11/05 04:48:30;;;;;;;11.90;7.50;;;6.70;99.90;;;;;;5073254;28;20131;-69
2022/11/05 04:50:56;;;;;;;11.93;7.35;;;6.60;99.90;;;;;;5079356;28;20028;-70
2022/11/05 04:53:21;;;;;;;9.85;7.07;;;6.60;99.90;;;;;;5074142;28;20074;-70
2022/11/05 04:55:47;;;;;;;11.13;7.95;;;6.50;99.90;;;;;;5076785;28;20594;-69
2022/11/05 04:58:12;;;;;;;11.93;8.25;;;6.60;99.90;;;;;;5080779;28;20859;-69
2022/11/05 05:00:38;;;;;;;13.18;7.95;;;6.60;99.90;;;;;;5079996;28;20768;-70
2022/11/05 05:03:03;;;;;;;13.52;8.38;;;6.60;99.90;;;;;;5083028;28;20043;-70
2022/11/05 05:05:29;;;;;;;13.85;9.10;;;6.50;99.90;;;;;;5081480;28;20053;-70
2022/11/05 05:08:00;;;;;;;12.85;9.65;;;6.50;99.90;;;;;;5078652;28;20242;-69
2022/11/05 05:10:25;;;;;;;11.70;8.57;;;6.60;99.90;;;;;;5078439;28;20059;-70
2022/11/05 05:12:51;;;;;;;14.07;9.40;;;6.50;99.90;;;;;;5077066;28;20467;-69
2022/11/05 05:15:16;;;;;;;12.68;9.70;;;6.50;99.90;;;;;;5059218;28;20399;-69
2022/11/05 05:17:42;;;;;;;16.33;10.48;;;6.60;99.90;;;;;;5078588;28;20109;-69
2022/11/05 05:22:55;;;;;;;18.08;10.52;;;6.60;99.90;;;;;;5076127;28;20105;-69
2022/11/05 05:25:21;;;;;;;16.63;12.30;;;6.50;99.90;;;;;;5078274;28;20082;-68
2022/11/05 05:27:46;;;;;;;15.00;11.95;;;6.50;99.90;;;;;;5077533;28;20024;-69
2022/11/05 05:30:12;;;;;;;20.67;13.15;;;6.60;99.90;;;;;;5074419;28;20029;-68
2022/11/05 05:32:37;;;;;;;18.30;13.35;;;6.50;99.90;;;;;;5059897;28;20028;-68
2022/11/05 05:35:03;;;;;;;19.55;13.70;;;6.40;99.90;;;;;;5077955;28;20032;-69
2022/11/05 05:37:29;;;;;;;16.55;13.18;;;6.60;99.90;;;;;;5078418;28;20070;-69
2022/11/05 05:39:54;;;;;;;17.70;14.50;;;6.50;99.90;;;;;;5077152;28;20359;-69
2022/11/05 05:42:21;;;;;;;19.98;14.80;;;6.50;99.90;;;;;;5059253;28;20050;-69
2022/11/05 05:44:47;;;;;;;20.35;14.85;;;6.50;99.90;;;;;;5077944;28;20051;-69
2022/11/05 05:47:13;;;;;;;19.58;14.52;;;6.50;99.90;;;;;;5077408;28;20036;-69
2022/11/05 05:49:39;;;;;;;19.30;15.38;;;6.40;99.90;;;;;;5058258;28;20623;-69
2022/11/05 05:52:04;;;;;;;18.58;14.45;;;6.50;99.90;;;;;;5078645;28;20119;-69
2022/11/05 05:54:30;;;;;;;19.25;15.13;;;6.40;99.90;;;;;;5059513;28;20177;-69
2022/11/05 05:56:56;;;;;;;18.65;15.52;;;6.40;99.90;;;;;;5077468;28;20540;-69
2022/11/05 05:59:22;;;;;;;20.40;16.00;;;6.40;99.90;;;;;;5076500;28;20209;-69
2022/11/05 06:01:48;;;;;;;20.70;15.98;;;;;;;;;;5077684;28;20780;-69
2022/11/05 06:04:14;;;;;;;23.92;15.82;;;6.30;99.90;;;;;;5076999;28;20150;-69
2022/11/05 06:06:40;;;;;;;19.52;15.63;;;6.30;99.90;;;;;;5061138;28;20082;-69
2022/11/05 06:09:05;;;;;;;19.95;15.55;;;6.30;99.90;;;;;;5057916;28;20028;-69
2022/11/05 06:11:31;;;;;;;22.65;15.88;;;6.30;99.90;;;;;;5075515;28;20085;-69
2022/11/05 06:13:56;;;;;;;22.15;16.17;;;6.30;99.90;;;;;;5059136;28;20067;-69
2022/11/05 06:16:22;;;;;;;22.48;15.93;;;6.30;99.90;;;;;;5060227;28;20646;-69
2022/11/05 06:18:48;;;;;;;24.35;16.48;;;6.30;99.90;;;;;;5071279;28;20040;-69
2022/11/05 06:21:16;;;;;;;21.40;15.32;;;6.30;99.90;;;;;;5073478;28;20036;-69
2022/11/05 06:23:43;;;;;;;19.52;15.07;;;6.20;99.90;;;;;;5076159;28;20143;-69
2022/11/05 06:26:14;;;;;;;23.13;15.95;;;;;;;;;;5079540;28;20248;-69
2022/11/05 06:28:40;;;;;;;23.05;15.38;;;6.10;99.90;;;;;;5059784;28;21225;-69
2022/11/05 06:31:07;;;;;;;24.17;16.80;;;6.10;99.90;;;;;;5058938;28;20147;-68
2022/11/05 06:33:33;;;;;;;21.10;15.40;;;6.20;99.90;;;;;;5077237;28;20032;-69
2022/11/05 06:36:00;;;;;;;25.30;16.65;;;6.20;99.90;;;;;;5078007;28;20085;-69
2022/11/05 06:38:25;;;;;;;21.15;15.48;;;6.20;99.90;;;;;;5076463;28;20024;-68
2022/11/05 06:40:51;;;;;;;22.42;15.48;;;6.20;99.90;;;;;;5076955;28;20032;-69
2022/11/05 06:43:16;;;;;;;22.20;15.52;;;6.20;99.90;;;;;;5082517;28;20050;-69
2022/11/05 06:45:42;;;;;;;23.80;16.40;;;6.20;99.90;;;;;;5061514;28;20073;-69
2022/11/05 06:48:08;;;;;;;22.90;16.52;;;6.20;99.90;;;;;;5083019;28;20093;-69
2022/11/05 06:50:33;;;;;;;22.80;16.85;;;6.20;99.90;;;;;;5081414;28;20036;-69
2022/11/05 06:53:01;;;;;;;21.67;16.10;;;6.30;99.90;;;;;;5082841;28;20032;-68
2022/11/05 06:55:28;;;;;;;25.42;16.40;;;6.20;99.90;;;;;;5057508;28;20118;-68
2022/11/05 06:57:55;;;;;;;25.45;17.08;;;6.20;99.90;;;;;;5058813;28;20028;-68
2022/11/05 07:00:21;;;;;;;26.50;17.35;;;6.20;99.90;;;;;;5059119;28;20036;-69
2022/11/05 07:02:47;;;;;;;23.40;17.15;;;6.20;99.90;;;;;;5053842;28;20037;-69
2022/11/05 07:05:15;;;;;;;23.63;17.15;;;6.20;99.90;;;;;;5057654;28;20607;-68
2022/11/05 07:07:41;;;;;;;22.75;17.35;;;6.10;99.90;;;;;;5057875;28;20441;-69
2022/11/05 07:10:12;;;;;;;23.63;16.90;;;6.10;99.90;;;;;;5056724;28;20547;-69
2022/11/05 07:12:38;;;;;;;25.00;16.50;;;6.10;99.90;;;;;;5059562;28;20029;-68
2022/11/05 07:15:04;;;;;;;23.27;16.50;;;6.10;99.90;;;;;;5056990;28;20763;-68
2022/11/05 07:17:30;;;;;;;26.02;16.45;;;6.10;99.90;;;;;;5059607;28;20493;-69
2022/11/05 07:19:56;;;;;;;25.17;17.20;;;6.20;99.90;;;;;;5058334;28;20113;-68
2022/11/05 07:22:21;;;;;;;23.58;17.73;;;6.30;99.90;;;;;;5058797;28;20051;-69
2022/11/05 07:24:48;;;;;;;24.45;17.05;;;6.30;99.90;;;;;;5058405;28;20060;-68
2022/11/05 07:27:14;;;;;;;26.75;17.92;;;6.40;99.90;;;;;;5054238;28;20037;-68
2022/11/05 07:29:39;;;;;;;23.95;17.58;;;6.30;99.90;;;;;;5057319;28;20058;-68
2022/11/05 07:32:05;;;;;;;28.25;17.42;;;6.30;99.90;;;;;;5059125;28;20032;-68
2022/11/05 07:34:31;;;;;;;28.13;18.00;;;6.30;99.90;;;;;;5059275;28;20102;-68
2022/11/05 07:36:57;;;;;;;24.13;17.95;;;6.40;99.90;;;;;;5060339;28;20036;-68
2022/11/05 07:39:22;;;;;;;28.30;17.90;;;6.60;99.90;;;;;;5056290;28;20098;-68
2022/11/05 07:41:48;;;;;;;25.45;18.00;;;6.60;99.90;;;;;;5060137;28;20058;-68
2022/11/05 07:44:13;;;;;;;25.73;16.85;;;6.70;99.90;;;;;;5057765;28;20128;-68
2022/11/05 07:46:42;;;;;;;26.35;17.60;;;6.70;99.90;;;;;;5059205;28;20037;-68
2022/11/05 07:49:08;;;;;;;30.92;17.70;;;6.80;99.90;;;;;;5058817;28;20029;-68
2022/11/05 07:51:33;;;;;;;26.33;17.58;;;6.90;99.90;;;;;;5058085;28;20089;-66
2022/11/05 07:53:59;;;;;;;27.27;18.92;;;7.10;99.90;;;;;;5058560;28;20043;-66
2022/11/05 07:56:25;;;;;;;27.23;17.98;;;7.20;99.90;;;;;;5057399;28;20056;-66
2022/11/05 07:58:50;;;;;;;27.45;18.20;;;7.20;99.90;;;;;;5057851;28;20042;-66
2022/11/05 08:01:16;;;;;;;33.55;19.15;;;7.20;99.90;;;;;;5058047;28;20488;-66
2022/11/05 08:03:41;;;;;;;28.77;18.50;;;7.50;99.90;;;;;;5060748;28;20036;-66
2022/11/05 08:06:07;;;;;;;25.58;18.15;;;7.60;99.90;;;;;;5058768;28;20098;-66
2022/11/05 08:08:33;;;;;;;26.13;18.35;;;7.60;99.90;;;;;;5059231;28;20711;-66
2022/11/05 08:11:07;;;;;;;25.38;17.35;;;7.70;99.90;;;;;;5054558;28;20059;-66
2022/11/05 08:13:33;;;;;;;19.80;15.73;;;7.60;99.90;;;;;;5059435;28;20559;-66
2022/11/05 08:16:00;;;;;;;23.83;16.75;;;7.60;99.90;;;;;;5057766;28;20028;-66
2022/11/05 08:18:30;;;;;;;24.42;16.38;;;7.60;99.90;;;;;;5059864;28;20063;-66
2022/11/05 08:21:00;;;;;;;19.40;16.20;;;7.70;99.90;;;;;;5057159;28;20094;-66
2022/11/05 08:23:27;;;;;;;27.40;16.55;;;7.60;99.90;;;;;;5057125;28;20040;-66
2022/11/05 08:25:53;;;;;;;23.83;17.55;;;7.70;99.90;;;;;;5057608;28;20178;-66
2022/11/05 08:28:20;;;;;;;26.23;17.35;;;8.00;99.90;;;;;;5057953;28;20048;-66
2022/11/05 08:30:53;;;;;;;23.92;16.92;;;8.00;99.90;;;;;;5056178;28;20070;-66
2022/11/05 08:33:19;;;;;;;128.63;62.47;;;8.00;99.90;;;;;;5056493;28;20131;-65
2022/11/05 08:35:46;;;;;;;32.03;20.45;;;8.20;99.90;;;;;;5057736;28;20111;-66
2022/11/05 08:38:13;;;;;;;24.33;15.27;;;8.20;99.90;;;;;;5059066;28;20638;-66
2022/11/05 08:40:40;;;;;;;23.13;15.98;;;8.20;99.90;;;;;;5059414;28;20029;-66
2022/11/05 08:43:08;;;;;;;22.15;15.88;;;8.30;99.90;;;;;;5058094;28;20032;-66
2022/11/05 08:45:35;;;;;;;24.45;15.50;;;8.40;99.90;;;;;;5058223;28;20070;-66
2022/11/05 08:48:07;;;;;;;26.15;15.02;;;8.40;99.90;;;;;;5058201;28;20769;-66
2022/11/05 08:50:33;;;;;;;22.10;15.10;;;8.50;99.90;;;;;;5058664;28;20029;-66
2022/11/05 08:52:58;;;;;;;22.25;13.68;;;8.60;99.90;;;;;;5059279;28;20059;-66
2022/11/05 08:55:24;;;;;;;21.05;13.57;;;8.60;99.90;;;;;;5057690;28;20452;-66
2022/11/05 08:57:57;;;;;;;21.42;13.45;;;8.60;99.90;;;;;;5057448;28;20552;-66
2022/11/05 09:00:24;;;;;;;20.45;12.25;;;8.50;99.90;;;;;;5055964;28;20133;-66
2022/11/05 09:02:50;;;;;;;20.70;12.65;;;8.50;99.90;;;;;;5058144;28;20116;-66
2022/11/05 09:05:15;;;;;;;20.20;12.05;;;8.50;99.90;;;;;;5054724;28;20546;-66
2022/11/05 09:07:41;;;;;;;21.65;11.88;;;8.50;99.90;;;;;;5058280;28;20043;-66
2022/11/05 09:10:07;;;;;;;16.60;11.25;;;8.60;99.90;;;;;;5055541;28;21033;-66
2022/11/05 09:12:33;;;;;;;20.60;11.35;;;;;;;;;;5059057;28;20044;-66
2022/11/05 09:14:58;;;;;;;16.55;11.20;;;8.90;99.90;;;;;;5056919;28;20040;-66
2022/11/05 09:17:24;;;;;;;21.33;11.75;;;8.90;99.90;;;;;;5057874;28;20144;-66
2022/11/05 09:19:50;;;;;;;18.85;11.13;;;8.90;99.90;;;;;;5058254;28;20036;-66
2022/11/05 09:22:15;;;;;;;19.92;11.35;;;9.00;99.90;;;;;;5058715;28;20090;-66
2022/11/05 09:24:42;;;;;;;13.82;9.40;;;9.00;99.90;;;;;;5056936;28;20055;-66
2022/11/05 09:27:10;;;;;;;15.88;9.70;;;9.00;99.90;;;;;;5058006;28;20357;-66
2022/11/05 09:29:36;;;;;;;18.55;10.45;;;9.10;99.90;;;;;;5056245;28;20044;-66
2022/11/05 09:32:02;;;;;;;20.80;9.90;;;9.10;99.90;;;;;;5056991;28;20040;-66
2022/11/05 09:34:28;;;;;;;16.50;9.27;;;9.30;99.90;;;;;;5058519;28;20025;-66
2022/11/05 09:36:53;;;;;;;15.60;9.40;;;9.40;99.90;;;;;;5053931;28;20135;-66
2022/11/05 09:39:19;;;;;;;11.93;9.15;;;9.50;99.90;;;;;;5052582;28;20051;-66
2022/11/05 09:41:45;;;;;;;15.90;9.27;;;9.50;99.90;;;;;;5054918;28;20078;-66
2022/11/05 09:44:17;;;;;;;13.68;8.48;;;9.60;99.90;;;;;;5055629;28;20482;-66
2022/11/05 09:46:57;;;;;;;15.27;9.50;;;9.70;99.90;;;;;;5057195;28;20026;-66
2022/11/05 09:49:34;;;;;;;16.67;9.23;;;9.80;99.90;;;;;;5047660;28;20403;-66
2022/11/05 09:52:00;;;;;;;18.13;8.90;;;9.90;99.90;;;;;;5055060;28;20582;-66
2022/11/05 09:54:30;;;;;;;21.92;9.20;;;9.90;99.90;;;;;;5056953;28;20104;-66
2022/11/05 09:56:56;;;;;;;16.80;8.35;;;9.90;99.90;;;;;;5052420;28;20538;-66
2022/11/05 09:59:30;;;;;;;14.68;8.70;;;10.00;99.90;;;;;;5056683;28;20032;-66
2022/11/05 10:02:07;;;;;;;13.48;7.50;;;10.10;99.90;;;;;;5054053;28;20033;-66
2022/11/05 10:04:33;;;;;;;16.30;7.90;;;10.10;99.90;;;;;;5057621;28;20813;-66
2022/11/05 10:07:02;;;;;;;10.80;6.80;;;10.10;99.90;;;;;;5050503;28;20064;-65
2022/11/05 10:09:44;;;;;;;22.92;15.77;;;10.10;99.90;;;;;;5054080;28;20037;-64
2022/11/05 10:12:35;;;;;;;15.80;9.73;;;10.20;99.90;;;;;;5050751;28;20116;-66
2022/11/05 10:15:16;;;;;;;14.10;6.90;;;10.90;99.90;;;;;;5053379;28;20025;-66
2022/11/05 10:17:47;;;;;;;13.07;6.50;;;10.40;99.90;;;;;;5053293;28;20404;-66
2022/11/05 10:20:36;;;;;;;9.98;6.20;;;10.40;99.90;;;;;;5052565;28;20404;-66
2022/11/05 10:23:13;;;;;;;9.80;6.40;;;10.50;99.90;;;;;;5052009;28;20097;-66
2022/11/05 10:25:52;;;;;;;11.27;6.10;;;10.60;99.90;;;;;;5056102;28;20025;-66
2022/11/05 10:28:21;;;;;;;13.25;6.13;;;10.60;99.90;;;;;;5057071;28;20032;-66
2022/11/05 10:30:56;;;;;;;13.43;6.15;;;10.70;99.90;;;;;;5057342;28;20067;-66
2022/11/05 10:33:29;;;;;;;11.20;5.45;;;10.70;99.90;;;;;;5053824;28;20032;-66
2022/11/05 10:35:59;;;;;;;;;;;10.70;99.90;;;;;;5058076;28;20616;-66
2022/11/05 10:38:25;;;;;;;12.32;6.00;;;10.70;99.90;;;;;;5054928;28;20316;-66
2022/11/05 10:41:02;;;;;;;11.50;5.90;;;10.70;99.90;;;;;;5057295;28;20072;-66
2022/11/05 10:43:43;;;;;;;11.73;6.00;;;10.80;99.90;;;;;;5055676;28;20063;-66
2022/11/05 10:46:31;;;;;;;13.18;6.10;;;10.90;99.90;;;;;;5055705;28;20040;-66
2022/11/05 10:49:23;;;;;;;11.45;6.20;;;10.90;99.90;;;;;;5054670;28;20040;-66
2022/11/05 10:51:55;;;;;;;16.60;7.10;;;10.90;99.90;;;;;;5054224;28;20506;-66
2022/11/05 10:54:25;;;;;;;13.43;6.43;;;11.00;99.90;;;;;;5053494;28;20146;-66
2022/11/05 10:56:50;;;;;;;14.65;6.63;;;11.00;99.90;;;;;;5051654;28;20441;-66
2022/11/05 10:59:27;;;;;;;11.98;6.15;;;11.00;99.90;;;;;;5053599;28;20055;-66
2022/11/05 11:01:58;;;;;;;12.02;6.07;;;11.00;99.90;;;;;;5053844;28;20044;-66
2022/11/05 11:04:26;;;;;;;12.98;6.05;;;11.20;99.90;;;;;;5051847;28;20045;-66
2022/11/05 11:06:57;;;;;;;10.63;5.78;;;11.20;99.90;;;;;;5055954;28;20028;-66
2022/11/05 11:09:31;;;;;;;10.27;5.57;;;11.20;99.90;;;;;;5052730;28;20041;-66
2022/11/05 11:12:15;;;;;;;9.90;5.70;;;11.20;99.90;;;;;;5056070;28;20025;-66
2022/11/05 11:14:41;;;;;;;13.90;5.95;;;11.30;99.90;;;;;;5054776;28;20361;-67
2022/11/05 11:17:36;;;;;;;12.10;6.22;;;11.40;99.90;;;;;;5054411;28;20044;-67
2022/11/05 11:20:24;;;;;;;10.90;6.13;;;11.50;99.90;;;;;;5045812;28;20043;-67
2022/11/05 11:23:09;;;;;;;12.65;6.18;;;11.60;99.90;;;;;;5052352;28;20036;-66
2022/11/05 11:25:47;;;;;;;13.35;6.10;;;11.60;99.90;;;;;;5052883;28;20652;-67
2022/11/05 11:28:22;;;;;;;11.15;6.07;;;11.60;99.90;;;;;;5055633;28;20110;-67
2022/11/05 11:31:00;;;;;;;11.15;5.95;;;11.70;99.90;;;;;;5056262;28;20117;-67
2022/11/05 11:33:27;;;;;;;13.73;6.07;;;11.70;99.90;;;;;;5058834;28;20138;-67
2022/11/05 11:35:54;;;;;;;11.75;6.65;;;11.80;99.90;;;;;;5056894;28;20021;-67
2022/11/05 11:38:21;;;;;;;9.98;6.20;;;11.80;99.90;;;;;;5053498;28;20033;-67
2022/11/05 11:40:47;;;;;;;12.18;6.15;;;11.80;99.90;;;;;;5059640;28;20041;-67
2022/11/05 11:43:25;;;;;;;10.95;5.63;;;11.70;99.90;;;;;;5055390;28;20048;-67
2022/11/05 11:45:53;;;;;;;12.63;6.97;;;11.80;99.90;;;;;;5057258;28;20249;-67
2022/11/05 11:48:24;;;;;;;11.85;6.97;;;11.80;99.90;;;;;;5058627;28;20111;-67
2022/11/05 11:50:50;;;;;;;13.07;6.30;;;11.70;99.90;;;;;;5058887;28;20024;-67
2022/11/05 11:53:28;;;;;;;10.35;6.18;;;11.80;99.90;;;;;;5058841;28;20036;-67
2022/11/05 11:55:54;;;;;;;11.75;6.32;;;11.80;99.90;;;;;;5060117;28;20093;-67
2022/11/05 11:58:33;;;;;;;11.98;5.68;;;11.90;99.90;;;;;;5071496;28;20515;-67
2022/11/05 12:01:41;;;;;;;13.20;6.55;;;11.90;99.90;;;;;;5058150;28;20071;-67
2022/11/05 12:05:00;;;;;;;13.70;6.75;;;12.00;99.90;;;;;;4989620;28;20034;-67
2022/11/05 12:07:37;;;;;;;13.23;6.25;;;12.00;99.90;;;;;;4981130;28;20494;-67
2022/11/05 12:10:20;;;;;;;12.77;6.28;;;11.90;99.90;;;;;;5047715;28;20233;-67
2022/11/05 12:13:22;;;;;;;12.30;5.95;;;11.90;99.90;;;;;;5055808;28;20517;-67
2022/11/05 12:15:56;;;;;;;15.13;6.25;;;12.10;99.90;;;;;;4963674;28;20037;-66
2022/11/05 12:18:46;;;;;;;10.75;5.97;;;12.10;99.90;;;;;;5044281;28;20496;-67
2022/11/05 12:21:49;;;;;;;11.20;6.28;;;12.20;99.90;;;;;;5054381;28;20056;-67
2022/11/05 12:24:33;;;;;;;10.38;5.50;;;12.20;99.90;;;;;;5054557;28;20040;-67
2022/11/05 12:27:20;;;;;;;12.57;5.85;;;12.20;99.90;;;;;;5057396;28;20025;-66
2022/11/05 12:30:10;;;;;;;12.63;5.88;;;12.10;99.90;;;;;;5055236;28;20400;-67
2022/11/05 12:33:22;;;;;;;13.25;5.18;;;12.10;99.90;;;;;;5058195;28;20101;-67
2022/11/05 12:36:14;;;;;;;14.65;5.78;;;12.20;99.90;;;;;;5076163;28;20067;-67
2022/11/05 12:39:22;;;;;;;10.20;5.38;;;12.20;99.90;;;;;;5078534;28;20016;-67
2022/11/05 12:42:09;;;;;;;9.40;4.90;;;12.20;99.90;;;;;;5075857;28;20538;-66
2022/11/05 12:44:51;;;;;;;12.57;4.57;;;12.20;99.90;;;;;;5078020;28;20071;-66
2022/11/05 12:47:29;;;;;;;11.00;5.60;;;12.10;99.90;;;;;;5077192;28;20059;-66
2022/11/05 12:50:15;;;;;;;11.95;5.15;;;12.00;99.90;;;;;;5078083;28;20090;-67
2022/11/05 12:53:03;;;;;;;6.80;4.70;;;12.00;99.90;;;;;;5079242;28;20028;-66
2022/11/05 12:55:37;;;;;;;11.15;5.50;;;12.10;99.90;;;;;;5077737;28;20032;-66
2022/11/05 12:58:31;;;;;;;8.48;5.05;;;12.20;99.90;;;;;;5077503;28;20067;-67
2022/11/05 13:01:02;;;;;;;8.27;4.60;;;12.10;99.90;;;;;;5057887;28;20028;-66
2022/11/05 13:04:00;;;;;;;7.88;4.82;;;12.10;99.90;;;;;;5076767;28;20188;-66
2022/11/05 13:06:39;;;;;;;11.45;4.82;;;12.10;99.90;;;;;;5076356;28;20464;-66
2022/11/05 13:09:20;;;;;;;10.88;5.85;;;12.10;99.90;;;;;;5076063;28;20043;-62
2022/11/05 13:11:55;;;;;;;12.02;7.50;;;12.20;99.90;;;;;;5075627;28;20107;-62
2022/11/05 13:14:24;;;;;;;13.90;8.32;;;12.30;99.90;;;;;;5074459;28;20040;-66
2022/11/05 13:16:54;;;;;;;11.02;4.57;;;12.30;99.90;;;;;;5059370;28;20119;-66
2022/11/05 13:19:31;;;;;;;10.75;5.15;;;12.20;99.90;;;;;;5073210;28;20036;-66
2022/11/05 13:22:08;;;;;;;8.70;4.80;;;12.30;99.90;;;;;;5078097;28;20048;-66
2022/11/05 13:24:48;;;;;;;9.73;5.05;;;12.20;99.90;;;;;;5073899;28;20036;-66
2022/11/05 13:27:38;;;;;;;7.78;3.58;;;12.10;99.90;;;;;;5096814;22;20044;-93
2022/11/05 13:30:09;;;;;;;6.55;4.10;;;12.20;99.90;;;;;;5021130;28;20040;-92
2022/11/05 13:32:42;;;;;;;7.25;3.80;;;12.30;99.90;;;;;;5048720;28;20041;-92
2022/11/05 13:35:16;;;;;;;;;;;12.20;99.90;;;;;;5033422;28;20020;-92
2022/11/05 13:44:20;;;;;;;10.02;4.20;;;12.00;99.90;;;;;;4988423;28;20079;-93
2022/11/05 13:47:37;;;;;;;10.10;3.78;;;12.10;99.90;;;;;;5062227;28;20033;-92
2022/11/05 13:50:28;;;;;;;9.90;3.53;;;12.00;99.90;;;;;;5046910;28;20029;-91
2022/11/05 13:53:21;;;;;;;8.15;3.20;;;12.20;99.90;;;;;;5047036;28;20027;-92
2022/11/05 13:55:55;;;;;;;7.45;3.08;;;12.30;99.90;;;;;;5050034;28;20025;-92
2022/11/05 13:58:29;;;;;;;;;;;12.20;99.90;;;;;;5054829;28;20033;-93